sensor_id;sensor_type;location;lat;lon;timestamp;pressure;altitude;pressure_sealevel;temperature
61595;BMP280;47397;48.194;11.632;2024-03-22T00:00:56;96648.41;;;5.98
61595;BMP280;47397;48.194;11.632;2024-03-22T00:01:56;96644.19;;;5.95
61595;BMP280;47397;48.194;11.632;2024-03-22T00:02:57;96651.78;;;6.01
61595;BMP280;47397;48.194;11.632;2024-03-22T00:03:57;96645.94;;;6.11
61595;BMP280;47397;48.194;11.632;2024-03-22T00:04:57;96637.50;;;6.03
61595;BMP280;47397;48.194;11.632;2024-03-22T00:05:58;96643.34;;;5.99
61595;BMP280;47397;48.194;11.632;2024-03-22T00:06:58;96645.91;;;6.02
61595;BMP280;47397;48.194;11.632;2024-03-22T00:07:58;96640.81;;;5.98
61595;BMP280;47397;48.194;11.632;2024-03-22T00:08:59;96638.31;;;5.99
61595;BMP280;47397;48.194;11.632;2024-03-22T00:09:59;96641.72;;;6.06
61595;BMP280;47397;48.194;11.632;2024-03-22T00:10:59;96645.78;;;5.90
61595;BMP280;47397;48.194;11.632;2024-03-22T00:12:00;96640.00;;;6.00
61595;BMP280;47397;48.194;11.632;2024-03-22T00:13:00;96649.25;;;6.03
61595;BMP280;47397;48.194;11.632;2024-03-22T00:14:02;96651.84;;;6.13
61595;BMP280;47397;48.194;11.632;2024-03-22T00:15:03;96650.13;;;6.09
61595;BMP280;47397;48.194;11.632;2024-03-22T00:16:04;96647.66;;;6.15
61595;BMP280;47397;48.194;11.632;2024-03-22T00:17:05;96654.88;;;5.67
61595;BMP280;47397;48.194;11.632;2024-03-22T00:18:05;96649.09;;;5.86
61595;BMP280;47397;48.194;11.632;2024-03-22T00:19:06;96645.75;;;5.85
61595;BMP280;47397;48.194;11.632;2024-03-22T00:20:07;96644.97;;;5.91
61595;BMP280;47397;48.194;11.632;2024-03-22T00:21:07;96644.03;;;5.83
61595;BMP280;47397;48.194;11.632;2024-03-22T00:22:07;96647.38;;;5.79
61595;BMP280;47397;48.194;11.632;2024-03-22T00:23:08;96638.16;;;5.84
61595;BMP280;47397;48.194;11.632;2024-03-22T00:24:08;96644.00;;;5.78
61595;BMP280;47397;48.194;11.632;2024-03-22T00:25:08;96644.03;;;5.83
61595;BMP280;47397;48.194;11.632;2024-03-22T00:26:09;96649.06;;;5.80
61595;BMP280;47397;48.194;11.632;2024-03-22T00:27:09;96643.22;;;5.87
61595;BMP280;47397;48.194;11.632;2024-03-22T00:28:09;96641.53;;;5.83
61595;BMP280;47397;48.194;11.632;2024-03-22T00:29:11;96644.06;;;5.89
61595;BMP280;47397;48.194;11.632;2024-03-22T00:30:11;96639.09;;;5.93
61595;BMP280;47397;48.194;11.632;2024-03-22T00:31:12;96631.44;;;5.86
61595;BMP280;47397;48.194;11.632;2024-03-22T00:32:12;96633.03;;;5.72
61595;BMP280;47397;48.194;11.632;2024-03-22T00:33:13;96631.44;;;5.86
61595;BMP280;47397;48.194;11.632;2024-03-22T00:34:13;96631.44;;;5.87
61595;BMP280;47397;48.194;11.632;2024-03-22T00:35:13;96632.28;;;5.85
61595;BMP280;47397;48.194;11.632;2024-03-22T00:36:14;96636.53;;;5.90
61595;BMP280;47397;48.194;11.632;2024-03-22T00:37:14;96640.75;;;5.90
61595;BMP280;47397;48.194;11.632;2024-03-22T00:38:14;96644.06;;;5.89
61595;BMP280;47397;48.194;11.632;2024-03-22T00:39:15;96642.50;;;5.97
61595;BMP280;47397;48.194;11.632;2024-03-22T00:40:15;96639.16;;;6.01
61595;BMP280;47397;48.194;11.632;2024-03-22T00:41:15;96635.78;;;5.98
61595;BMP280;47397;48.194;11.632;2024-03-22T00:42:16;96625.56;;;5.88
61595;BMP280;47397;48.194;11.632;2024-03-22T00:43:16;96635.66;;;5.87
61595;BMP280;47397;48.194;11.632;2024-03-22T00:44:18;96628.91;;;5.83
61595;BMP280;47397;48.194;11.632;2024-03-22T00:45:18;96633.97;;;5.86
61595;BMP280;47397;48.194;11.632;2024-03-22T00:46:18;96624.69;;;5.80
61595;BMP280;47397;48.194;11.632;2024-03-22T00:47:19;96626.41;;;5.84
61595;BMP280;47397;48.194;11.632;2024-03-22T00:48:19;96628.03;;;5.79
61595;BMP280;47397;48.194;11.632;2024-03-22T00:49:19;96619.69;;;5.88
61595;BMP280;47397;48.194;11.632;2024-03-22T00:50:20;96628.06;;;5.85
61595;BMP280;47397;48.194;11.632;2024-03-22T00:51:20;96623.00;;;5.81
61595;BMP280;47397;48.194;11.632;2024-03-22T00:52:20;96622.13;;;5.76
61595;BMP280;47397;48.194;11.632;2024-03-22T00:53:21;96619.59;;;5.73
61595;BMP280;47397;48.194;11.632;2024-03-22T00:54:21;96623.78;;;5.71
61595;BMP280;47397;48.194;11.632;2024-03-22T00:55:22;96613.69;;;5.69
61595;BMP280;47397;48.194;11.632;2024-03-22T00:56:22;96616.25;;;5.78
61595;BMP280;47397;48.194;11.632;2024-03-22T00:57:22;96613.72;;;5.72
61595;BMP280;47397;48.194;11.632;2024-03-22T00:58:23;96617.06;;;5.70
61595;BMP280;47397;48.194;11.632;2024-03-22T00:59:24;96608.59;;;5.63
61595;BMP280;47397;48.194;11.632;2024-03-22T01:00:25;96611.13;;;5.60
61595;BMP280;47397;48.194;11.632;2024-03-22T01:01:25;96608.50;;;5.51
61595;BMP280;47397;48.194;11.632;2024-03-22T01:02:25;96609.38;;;5.54
61595;BMP280;47397;48.194;11.632;2024-03-22T01:03:26;96613.66;;;5.66
61595;BMP280;47397;48.194;11.632;2024-03-22T01:04:26;96606.94;;;5.65
61595;BMP280;47397;48.194;11.632;2024-03-22T01:05:26;96608.63;;;5.66
61595;BMP280;47397;48.194;11.632;2024-03-22T01:06:27;96605.28;;;5.69
61595;BMP280;47397;48.194;11.632;2024-03-22T01:07:27;96607.75;;;5.58
61595;BMP280;47397;48.194;11.632;2024-03-22T01:08:27;96601.06;;;5.64
61595;BMP280;47397;48.194;11.632;2024-03-22T01:09:28;96605.25;;;5.62
61595;BMP280;47397;48.194;11.632;2024-03-22T01:10:28;96603.59;;;5.68
61595;BMP280;47397;48.194;11.632;2024-03-22T01:11:29;96595.22;;;5.75
61595;BMP280;47397;48.194;11.632;2024-03-22T01:12:29;96597.75;;;5.76
61595;BMP280;47397;48.194;11.632;2024-03-22T01:13:29;96596.06;;;5.74
61595;BMP280;47397;48.194;11.632;2024-03-22T01:14:31;96598.56;;;5.71
61595;BMP280;47397;48.194;11.632;2024-03-22T01:15:32;96596.88;;;5.70
61595;BMP280;47397;48.194;11.632;2024-03-22T01:16:32;96590.16;;;5.72
61595;BMP280;47397;48.194;11.632;2024-03-22T01:17:32;96593.53;;;5.72
61595;BMP280;47397;48.194;11.632;2024-03-22T01:18:33;96591.84;;;5.73
61595;BMP280;47397;48.194;11.632;2024-03-22T01:19:33;96595.03;;;5.49
61595;BMP280;47397;48.194;11.632;2024-03-22T01:20:33;96586.63;;;5.50
61595;BMP280;47397;48.194;11.632;2024-03-22T01:21:34;96581.56;;;5.44
61595;BMP280;47397;48.194;11.632;2024-03-22T01:22:34;96585.72;;;5.39
61595;BMP280;47397;48.194;11.632;2024-03-22T01:23:34;96581.53;;;5.41
61595;BMP280;47397;48.194;11.632;2024-03-22T01:24:35;96578.19;;;5.43
61595;BMP280;47397;48.194;11.632;2024-03-22T01:25:35;96581.56;;;5.44
61595;BMP280;47397;48.194;11.632;2024-03-22T01:26:35;96586.59;;;5.44
61595;BMP280;47397;48.194;11.632;2024-03-22T01:27:36;96589.09;;;5.41
61595;BMP280;47397;48.194;11.632;2024-03-22T01:28:36;96586.63;;;5.47
61595;BMP280;47397;48.194;11.632;2024-03-22T01:29:38;96590.00;;;5.52
61595;BMP280;47397;48.194;11.632;2024-03-22T01:30:38;96590.88;;;5.55
61595;BMP280;47397;48.194;11.632;2024-03-22T01:31:38;96583.28;;;5.51
61595;BMP280;47397;48.194;11.632;2024-03-22T01:32:39;96584.97;;;5.50
61595;BMP280;47397;48.194;11.632;2024-03-22T01:33:39;96579.06;;;5.47
61595;BMP280;47397;48.194;11.632;2024-03-22T01:34:40;96584.09;;;5.45
61595;BMP280;47397;48.194;11.632;2024-03-22T01:35:40;96580.72;;;5.42
61595;BMP280;47397;48.194;11.632;2024-03-22T01:36:40;96584.88;;;5.37
61595;BMP280;47397;48.194;11.632;2024-03-22T01:37:41;96582.38;;;5.38
61595;BMP280;47397;48.194;11.632;2024-03-22T01:38:41;96583.19;;;5.37
61595;BMP280;47397;48.194;11.632;2024-03-22T01:39:41;96584.88;;;5.38
61595;BMP280;47397;48.194;11.632;2024-03-22T01:40:42;96584.03;;;5.34
61595;BMP280;47397;48.194;11.632;2024-03-22T01:41:43;96573.09;;;5.34
61595;BMP280;47397;48.194;11.632;2024-03-22T01:42:43;96571.34;;;5.24
61595;BMP280;47397;48.194;11.632;2024-03-22T01:43:44;96577.25;;;5.29
61595;BMP280;47397;48.194;11.632;2024-03-22T01:44:45;96573.03;;;5.26
61595;BMP280;47397;48.194;11.632;2024-03-22T01:45:46;96571.28;;;5.19
61595;BMP280;47397;48.194;11.632;2024-03-22T01:46:47;96576.31;;;5.18
61595;BMP280;47397;48.194;11.632;2024-03-22T01:47:48;96569.59;;;5.20
61595;BMP280;47397;48.194;11.632;2024-03-22T01:48:48;96570.50;;;5.22
61595;BMP280;47397;48.194;11.632;2024-03-22T01:49:50;96568.75;;;5.18
61595;BMP280;47397;48.194;11.632;2024-03-22T01:50:51;96567.06;;;5.15
61595;BMP280;47397;48.194;11.632;2024-03-22T01:51:52;96572.09;;;5.14
61595;BMP280;47397;48.194;11.632;2024-03-22T01:52:53;96570.44;;;5.19
61595;BMP280;47397;48.194;11.632;2024-03-22T01:53:54;96576.38;;;5.22
61595;BMP280;47397;48.194;11.632;2024-03-22T01:54:54;96575.53;;;5.23
61595;BMP280;47397;48.194;11.632;2024-03-22T01:55:55;96573.88;;;5.27
61595;BMP280;47397;48.194;11.632;2024-03-22T01:56:56;96573.03;;;5.25
61595;BMP280;47397;48.194;11.632;2024-03-22T01:57:56;96569.72;;;5.30
61595;BMP280;47397;48.194;11.632;2024-03-22T01:58:57;96566.38;;;5.33
61595;BMP280;47397;48.194;11.632;2024-03-22T01:59:59;96567.25;;;5.41
61595;BMP280;47397;48.194;11.632;2024-03-22T02:01:00;96569.78;;;5.43
61595;BMP280;47397;48.194;11.632;2024-03-22T02:02:00;96564.72;;;5.38
61595;BMP280;47397;48.194;11.632;2024-03-22T02:03:00;96561.31;;;5.31
61595;BMP280;47397;48.194;11.632;2024-03-22T02:04:01;96562.16;;;5.29
61595;BMP280;47397;48.194;11.632;2024-03-22T02:05:11;96562.84;;;5.16
61595;BMP280;47397;48.194;11.632;2024-03-22T02:06:11;96555.25;;;5.10
61595;BMP280;47397;48.194;11.632;2024-03-22T02:07:12;96557.75;;;5.07
61595;BMP280;47397;48.194;11.632;2024-03-22T02:08:12;96559.28;;;4.86
61595;BMP280;47397;48.194;11.632;2024-03-22T02:09:12;96554.25;;;4.86
61595;BMP280;47397;48.194;11.632;2024-03-22T02:10:13;96550.03;;;4.85
61595;BMP280;47397;48.194;11.632;2024-03-22T02:11:14;96549.19;;;4.86
61595;BMP280;47397;48.194;11.632;2024-03-22T02:12:14;96544.03;;;4.76
61595;BMP280;47397;48.194;11.632;2024-03-22T02:13:15;96547.31;;;4.67
61595;BMP280;47397;48.194;11.632;2024-03-22T02:14:15;96544.06;;;4.80
61595;BMP280;47397;48.194;11.632;2024-03-22T02:15:17;96552.59;;;4.90
61595;BMP280;47397;48.194;11.632;2024-03-22T02:16:17;96548.38;;;4.87
61595;BMP280;47397;48.194;11.632;2024-03-22T02:17:18;96549.22;;;4.88
61595;BMP280;47397;48.194;11.632;2024-03-22T02:18:18;96542.38;;;4.78
61595;BMP280;47397;48.194;11.632;2024-03-22T02:19:18;96550.06;;;4.88
61595;BMP280;47397;48.194;11.632;2024-03-22T02:20:19;96546.69;;;4.88
61595;BMP280;47397;48.194;11.632;2024-03-22T02:21:19;96540.75;;;4.83
61595;BMP280;47397;48.194;11.632;2024-03-22T02:22:19;96545.81;;;4.84
61595;BMP280;47397;48.194;11.632;2024-03-22T02:23:31;96550.91;;;4.90
61595;BMP280;47397;48.194;11.632;2024-03-22T02:24:31;96548.38;;;4.90
61595;BMP280;47397;48.194;11.632;2024-03-22T02:25:32;96547.56;;;4.90
61595;BMP280;47397;48.194;11.632;2024-03-22T02:26:32;96545.03;;;4.90
61595;BMP280;47397;48.194;11.632;2024-03-22T02:27:32;96539.94;;;4.84
61595;BMP280;47397;48.194;11.632;2024-03-22T02:28:34;96548.41;;;4.93
61595;BMP280;47397;48.194;11.632;2024-03-22T02:29:34;96544.97;;;4.84
61595;BMP280;47397;48.194;11.632;2024-03-22T02:30:35;96544.06;;;4.79
61595;BMP280;47397;48.194;11.632;2024-03-22T02:31:35;96540.69;;;4.75
61595;BMP280;47397;48.194;11.632;2024-03-22T02:32:35;96545.75;;;4.78
61595;BMP280;47397;48.194;11.632;2024-03-22T02:33:36;96539.88;;;4.81
61595;BMP280;47397;48.194;11.632;2024-03-22T02:34:36;96540.78;;;4.84
61595;BMP280;47397;48.194;11.632;2024-03-22T02:35:36;96541.53;;;4.76
61595;BMP280;47397;48.194;11.632;2024-03-22T02:36:37;96534.81;;;4.78
61595;BMP280;47397;48.194;11.632;2024-03-22T02:37:37;96533.09;;;4.70
61595;BMP280;47397;48.194;11.632;2024-03-22T02:38:39;96533.16;;;4.80
61595;BMP280;47397;48.194;11.632;2024-03-22T02:39:39;96539.94;;;4.85
61595;BMP280;47397;48.194;11.632;2024-03-22T02:40:39;96533.16;;;4.78
61595;BMP280;47397;48.194;11.632;2024-03-22T02:41:40;96530.59;;;4.75
61595;BMP280;47397;48.194;11.632;2024-03-22T02:42:40;96536.44;;;4.71
61595;BMP280;47397;48.194;11.632;2024-03-22T02:43:40;96533.13;;;4.75
61595;BMP280;47397;48.194;11.632;2024-03-22T02:44:41;96533.06;;;4.67
61595;BMP280;47397;48.194;11.632;2024-03-22T02:45:41;96533.13;;;4.75
61595;BMP280;47397;48.194;11.632;2024-03-22T02:46:42;96533.16;;;4.78
61595;BMP280;47397;48.194;11.632;2024-03-22T02:47:42;96530.59;;;4.75
61595;BMP280;47397;48.194;11.632;2024-03-22T02:48:42;96532.31;;;4.79
61595;BMP280;47397;48.194;11.632;2024-03-22T02:49:43;96531.47;;;4.79
61595;BMP280;47397;48.194;11.632;2024-03-22T02:50:43;96522.19;;;4.73
61595;BMP280;47397;48.194;11.632;2024-03-22T02:51:44;96526.38;;;4.72
61595;BMP280;47397;48.194;11.632;2024-03-22T02:52:44;96527.97;;;4.60
61595;BMP280;47397;48.194;11.632;2024-03-22T02:53:45;96528.00;;;4.64
61595;BMP280;47397;48.194;11.632;2024-03-22T02:54:46;96525.44;;;4.60
61595;BMP280;47397;48.194;11.632;2024-03-22T02:55:46;96525.50;;;4.67
61595;BMP280;47397;48.194;11.632;2024-03-22T02:56:47;96518.75;;;4.62
61595;BMP280;47397;48.194;11.632;2024-03-22T02:57:49;96517.94;;;4.64
61595;BMP280;47397;48.194;11.632;2024-03-22T02:58:49;96513.72;;;4.62
61595;BMP280;47397;48.194;11.632;2024-03-22T02:59:50;96519.59;;;4.62
61595;BMP280;47397;48.194;11.632;2024-03-22T03:00:50;96514.56;;;4.62
61595;BMP280;47397;48.194;11.632;2024-03-22T03:01:50;96514.50;;;4.58
61595;BMP280;47397;48.194;11.632;2024-03-22T03:02:51;96515.31;;;4.52
61595;BMP280;47397;48.194;11.632;2024-03-22T03:03:51;96514.50;;;4.55
61595;BMP280;47397;48.194;11.632;2024-03-22T03:04:51;96510.25;;;4.49
61595;BMP280;47397;48.194;11.632;2024-03-22T03:05:52;96510.28;;;4.54
61595;BMP280;47397;48.194;11.632;2024-03-22T03:06:52;96508.56;;;4.50
61595;BMP280;47397;48.194;11.632;2024-03-22T03:07:52;96510.16;;;4.43
61595;BMP280;47397;48.194;11.632;2024-03-22T03:08:54;96501.84;;;4.49
61595;BMP280;47397;48.194;11.632;2024-03-22T03:09:54;96510.22;;;4.46
61595;BMP280;47397;48.194;11.632;2024-03-22T03:10:54;96507.72;;;4.48
61595;BMP280;47397;48.194;11.632;2024-03-22T03:11:55;96504.38;;;4.49
61595;BMP280;47397;48.194;11.632;2024-03-22T03:12:55;96504.38;;;4.50
61595;BMP280;47397;48.194;11.632;2024-03-22T03:13:56;96495.97;;;4.47
61595;BMP280;47397;48.194;11.632;2024-03-22T03:14:56;96501.84;;;4.47
61595;BMP280;47397;48.194;11.632;2024-03-22T03:15:57;96496.72;;;4.43
61595;BMP280;47397;48.194;11.632;2024-03-22T03:16:57;96494.16;;;4.35
61595;BMP280;47397;48.194;11.632;2024-03-22T03:17:57;96495.97;;;4.47
61595;BMP280;47397;48.194;11.632;2024-03-22T03:18:58;96492.53;;;4.43
61595;BMP280;47397;48.194;11.632;2024-03-22T03:19:58;96496.72;;;4.43
61595;BMP280;47397;48.194;11.632;2024-03-22T03:20:58;96496.72;;;4.43
61595;BMP280;47397;48.194;11.632;2024-03-22T03:21:59;96494.09;;;4.29
61595;BMP280;47397;48.194;11.632;2024-03-22T03:22:59;96494.16;;;4.38
61595;BMP280;47397;48.194;11.632;2024-03-22T03:24:01;96494.19;;;4.39
61595;BMP280;47397;48.194;11.632;2024-03-22T03:25:03;96493.31;;;4.37
61595;BMP280;47397;48.194;11.632;2024-03-22T03:26:04;96485.75;;;4.36
61595;BMP280;47397;48.194;11.632;2024-03-22T03:27:04;96488.34;;;4.44
61595;BMP280;47397;48.194;11.632;2024-03-22T03:28:05;96492.50;;;4.40
61595;BMP280;47397;48.194;11.632;2024-03-22T03:29:05;96489.16;;;4.39
61595;BMP280;47397;48.194;11.632;2024-03-22T03:30:07;96484.91;;;4.35
61595;BMP280;47397;48.194;11.632;2024-03-22T03:31:07;96489.19;;;4.43
61595;BMP280;47397;48.194;11.632;2024-03-22T03:32:07;96489.19;;;4.46
61595;BMP280;47397;48.194;11.632;2024-03-22T03:33:08;96484.09;;;4.36
61595;BMP280;47397;48.194;11.632;2024-03-22T03:34:08;96479.09;;;4.39
61595;BMP280;47397;48.194;11.632;2024-03-22T03:35:08;96481.63;;;4.44
61595;BMP280;47397;48.194;11.632;2024-03-22T03:36:09;96480.75;;;4.40
61595;BMP280;47397;48.194;11.632;2024-03-22T03:37:09;96481.59;;;4.39
61595;BMP280;47397;48.194;11.632;2024-03-22T03:38:09;96478.25;;;4.40
61595;BMP280;47397;48.194;11.632;2024-03-22T03:39:11;96479.03;;;4.33
61595;BMP280;47397;48.194;11.632;2024-03-22T03:40:12;96477.28;;;4.25
61595;BMP280;47397;48.194;11.632;2024-03-22T03:41:12;96476.50;;;4.32
61595;BMP280;47397;48.194;11.632;2024-03-22T03:42:12;96470.63;;;4.31
61595;BMP280;47397;48.194;11.632;2024-03-22T03:43:13;96469.75;;;4.29
61595;BMP280;47397;48.194;11.632;2024-03-22T03:44:13;96473.13;;;4.30
61595;BMP280;47397;48.194;11.632;2024-03-22T03:45:13;96473.16;;;4.33
61595;BMP280;47397;48.194;11.632;2024-03-22T03:46:14;96467.22;;;4.26
61595;BMP280;47397;48.194;11.632;2024-03-22T03:47:14;96464.69;;;4.25
61595;BMP280;47397;48.194;11.632;2024-03-22T03:48:14;96465.53;;;4.24
61595;BMP280;47397;48.194;11.632;2024-03-22T03:49:15;96467.09;;;4.13
61595;BMP280;47397;48.194;11.632;2024-03-22T03:50:15;96463.81;;;4.21
61595;BMP280;47397;48.194;11.632;2024-03-22T03:51:15;96463.75;;;4.15
61595;BMP280;47397;48.194;11.632;2024-03-22T03:52:16;96461.28;;;4.18
61595;BMP280;47397;48.194;11.632;2024-03-22T03:53:16;96460.44;;;4.19
61595;BMP280;47397;48.194;11.632;2024-03-22T03:54:18;96461.34;;;4.24
61595;BMP280;47397;48.194;11.632;2024-03-22T03:55:18;96469.63;;;4.16
61595;BMP280;47397;48.194;11.632;2024-03-22T03:56:18;96454.53;;;4.16
61595;BMP280;47397;48.194;11.632;2024-03-22T03:57:19;96458.63;;;4.07
61595;BMP280;47397;48.194;11.632;2024-03-22T03:58:19;96451.94;;;4.08
61595;BMP280;47397;48.194;11.632;2024-03-22T03:59:19;96456.94;;;4.06
61595;BMP280;47397;48.194;11.632;2024-03-22T04:00:20;96459.47;;;4.08
61595;BMP280;47397;48.194;11.632;2024-03-22T04:01:20;96455.34;;;4.13
61595;BMP280;47397;48.194;11.632;2024-03-22T04:02:21;96461.31;;;4.21
61595;BMP280;47397;48.194;11.632;2024-03-22T04:03:21;96454.56;;;4.17
61595;BMP280;47397;48.194;11.632;2024-03-22T04:04:22;96459.41;;;4.02
61595;BMP280;47397;48.194;11.632;2024-03-22T04:05:22;96456.25;;;4.20
61595;BMP280;47397;48.194;11.632;2024-03-22T04:06:22;96462.06;;;4.14
61595;BMP280;47397;48.194;11.632;2024-03-22T04:07:23;96460.38;;;4.13
61595;BMP280;47397;48.194;11.632;2024-03-22T04:08:23;96451.16;;;4.12
61595;BMP280;47397;48.194;11.632;2024-03-22T04:09:25;96452.88;;;4.16
61595;BMP280;47397;48.194;11.632;2024-03-22T04:10:25;96455.22;;;4.02
61595;BMP280;47397;48.194;11.632;2024-03-22T04:11:26;96453.53;;;4.01
61595;BMP280;47397;48.194;11.632;2024-03-22T04:12:26;96454.41;;;4.05
61595;BMP280;47397;48.194;11.632;2024-03-22T04:13:27;96453.66;;;4.11
61595;BMP280;47397;48.194;11.632;2024-03-22T04:14:27;96451.91;;;4.06
61595;BMP280;47397;48.194;11.632;2024-03-22T04:15:28;96451.97;;;4.11
61595;BMP280;47397;48.194;11.632;2024-03-22T04:16:28;96447.72;;;4.07
61595;BMP280;47397;48.194;11.632;2024-03-22T04:17:28;96450.25;;;4.07
61595;BMP280;47397;48.194;11.632;2024-03-22T04:18:29;96443.47;;;4.01
61595;BMP280;47397;48.194;11.632;2024-03-22T04:19:29;96446.78;;;3.96
61595;BMP280;47397;48.194;11.632;2024-03-22T04:20:29;96438.41;;;3.98
61595;BMP280;47397;48.194;11.632;2024-03-22T04:21:29;96442.63;;;4.01
61595;BMP280;47397;48.194;11.632;2024-03-22T04:22:30;96435.97;;;4.06
61595;BMP280;47397;48.194;11.632;2024-03-22T04:23:30;96435.16;;;4.08
61595;BMP280;47397;48.194;11.632;2024-03-22T04:24:32;96435.22;;;4.13
61595;BMP280;47397;48.194;11.632;2024-03-22T04:25:32;96431.88;;;4.14
61595;BMP280;47397;48.194;11.632;2024-03-22T04:26:33;96427.72;;;4.16
61595;BMP280;47397;48.194;11.632;2024-03-22T04:27:35;96424.53;;;4.37
61595;BMP280;47397;48.194;11.632;2024-03-22T04:28:36;96423.69;;;4.35
61595;BMP280;47397;48.194;11.632;2024-03-22T04:29:36;96424.47;;;4.29
61595;BMP280;47397;48.194;11.632;2024-03-22T04:30:36;96430.25;;;4.18
61595;BMP280;47397;48.194;11.632;2024-03-22T04:31:37;96425.22;;;4.18
61595;BMP280;47397;48.194;11.632;2024-03-22T04:32:37;96431.16;;;4.27
61595;BMP280;47397;48.194;11.632;2024-03-22T04:33:37;96427.75;;;4.21
61595;BMP280;47397;48.194;11.632;2024-03-22T04:34:41;96429.41;;;4.17
61595;BMP280;47397;48.194;11.632;2024-03-22T04:35:45;96432.78;;;4.21
61595;BMP280;47397;48.194;11.632;2024-03-22T04:36:45;96430.22;;;4.16
61595;BMP280;47397;48.194;11.632;2024-03-22T04:37:45;96427.75;;;4.19
61595;BMP280;47397;48.194;11.632;2024-03-22T04:38:46;96423.56;;;4.20
61595;BMP280;47397;48.194;11.632;2024-03-22T04:39:47;96428.53;;;4.14
61595;BMP280;47397;48.194;11.632;2024-03-22T04:40:48;96428.53;;;4.14
61595;BMP280;47397;48.194;11.632;2024-03-22T04:41:48;96436.06;;;4.11
61595;BMP280;47397;48.194;11.632;2024-03-22T04:42:48;96429.34;;;4.13
61595;BMP280;47397;48.194;11.632;2024-03-22T04:43:49;96430.13;;;4.07
61595;BMP280;47397;48.194;11.632;2024-03-22T04:44:49;96431.84;;;4.10
61595;BMP280;47397;48.194;11.632;2024-03-22T04:45:50;96431.03;;;4.11
61595;BMP280;47397;48.194;11.632;2024-03-22T04:46:50;96437.78;;;4.18
61595;BMP280;47397;48.194;11.632;2024-03-22T04:47:51;96432.78;;;4.19
61595;BMP280;47397;48.194;11.632;2024-03-22T04:48:51;96431.88;;;4.14
61595;BMP280;47397;48.194;11.632;2024-03-22T04:49:51;96438.56;;;4.12
61595;BMP280;47397;48.194;11.632;2024-03-22T04:50:52;96428.41;;;4.04
61595;BMP280;47397;48.194;11.632;2024-03-22T04:51:53;96431.03;;;4.11
61595;BMP280;47397;48.194;11.632;2024-03-22T04:52:53;96429.25;;;4.05
61595;BMP280;47397;48.194;11.632;2024-03-22T04:53:54;96435.03;;;3.96
61595;BMP280;47397;48.194;11.632;2024-03-22T04:54:55;96432.56;;;4.01
61595;BMP280;47397;48.194;11.632;2024-03-22T04:55:56;96435.06;;;3.98
61595;BMP280;47397;48.194;11.632;2024-03-22T04:56:56;96434.28;;;4.05
61595;BMP280;47397;48.194;11.632;2024-03-22T04:57:56;96427.66;;;4.10
61595;BMP280;47397;48.194;11.632;2024-03-22T04:58:56;96435.22;;;4.10
61595;BMP280;47397;48.194;11.632;2024-03-22T04:59:57;96430.25;;;4.19
61595;BMP280;47397;48.194;11.632;2024-03-22T05:00:58;96435.97;;;4.04
61595;BMP280;47397;48.194;11.632;2024-03-22T05:01:58;96435.31;;;4.21
61595;BMP280;47397;48.194;11.632;2024-03-22T05:02:58;96429.44;;;4.20
61595;BMP280;47397;48.194;11.632;2024-03-22T05:03:59;96425.16;;;4.13
61595;BMP280;47397;48.194;11.632;2024-03-22T05:04:59;96426.06;;;4.20
61595;BMP280;47397;48.194;11.632;2024-03-22T05:06:00;96426.84;;;4.14
61595;BMP280;47397;48.194;11.632;2024-03-22T05:07:00;96428.56;;;4.17
61595;BMP280;47397;48.194;11.632;2024-03-22T05:08:00;96420.34;;;4.39
61595;BMP280;47397;48.194;11.632;2024-03-22T05:09:01;96427.66;;;4.12
61595;BMP280;47397;48.194;11.632;2024-03-22T05:10:03;96422.66;;;4.13
61595;BMP280;47397;48.194;11.632;2024-03-22T05:11:04;96426.88;;;4.17
61595;BMP280;47397;48.194;11.632;2024-03-22T05:12:04;96426.84;;;4.14
61595;BMP280;47397;48.194;11.632;2024-03-22T05:13:04;96429.44;;;4.23
61595;BMP280;47397;48.194;11.632;2024-03-22T05:14:05;96423.47;;;4.12
61595;BMP280;47397;48.194;11.632;2024-03-22T05:15:06;96424.31;;;4.11
61595;BMP280;47397;48.194;11.632;2024-03-22T05:16:07;96424.38;;;4.17
61595;BMP280;47397;48.194;11.632;2024-03-22T05:17:07;96431.09;;;4.18
61595;BMP280;47397;48.194;11.632;2024-03-22T05:18:08;96430.22;;;4.16
61595;BMP280;47397;48.194;11.632;2024-03-22T05:19:08;96427.75;;;4.21
61595;BMP280;47397;48.194;11.632;2024-03-22T05:20:09;96432.84;;;4.28
61595;BMP280;47397;48.194;11.632;2024-03-22T05:21:09;96425.31;;;4.30
61595;BMP280;47397;48.194;11.632;2024-03-22T05:22:10;96424.47;;;4.28
61595;BMP280;47397;48.194;11.632;2024-03-22T05:23:10;96427.00;;;4.32
61595;BMP280;47397;48.194;11.632;2024-03-22T05:24:11;96432.03;;;4.29
61595;BMP280;47397;48.194;11.632;2024-03-22T05:25:12;96431.25;;;4.36
61595;BMP280;47397;48.194;11.632;2024-03-22T05:26:13;96426.22;;;4.39
61595;BMP280;47397;48.194;11.632;2024-03-22T05:27:13;96427.22;;;4.57
61595;BMP280;47397;48.194;11.632;2024-03-22T05:28:13;96436.50;;;4.64
61595;BMP280;47397;48.194;11.632;2024-03-22T05:29:14;96428.97;;;4.64
61595;BMP280;47397;48.194;11.632;2024-03-22T05:30:14;96435.72;;;4.72
61595;BMP280;47397;48.194;11.632;2024-03-22T05:31:18;96429.00;;;4.70
61595;BMP280;47397;48.194;11.632;2024-03-22T05:32:18;96429.84;;;4.72
61595;BMP280;47397;48.194;11.632;2024-03-22T05:33:19;96429.00;;;4.68
61595;BMP280;47397;48.194;11.632;2024-03-22T05:34:19;96429.84;;;4.70
61595;BMP280;47397;48.194;11.632;2024-03-22T05:35:19;96431.56;;;4.78
61595;BMP280;47397;48.194;11.632;2024-03-22T05:36:20;96431.56;;;4.79
61595;BMP280;47397;48.194;11.632;2024-03-22T05:37:21;96433.31;;;4.83
61595;BMP280;47397;48.194;11.632;2024-03-22T05:38:21;96429.06;;;4.81
61595;BMP280;47397;48.194;11.632;2024-03-22T05:39:22;96433.28;;;4.82
61595;BMP280;47397;48.194;11.632;2024-03-22T05:40:23;96431.59;;;4.81
61595;BMP280;47397;48.194;11.632;2024-03-22T05:41:24;96424.09;;;4.85
61595;BMP280;47397;48.194;11.632;2024-03-22T05:42:24;96432.47;;;4.84
61595;BMP280;47397;48.194;11.632;2024-03-22T05:43:25;96432.53;;;4.90
61595;BMP280;47397;48.194;11.632;2024-03-22T05:44:25;96422.38;;;4.83
61595;BMP280;47397;48.194;11.632;2024-03-22T05:45:26;96421.63;;;4.91
61595;BMP280;47397;48.194;11.632;2024-03-22T05:46:26;96420.75;;;4.89
61595;BMP280;47397;48.194;11.632;2024-03-22T05:47:26;96419.94;;;4.93
61595;BMP280;47397;48.194;11.632;2024-03-22T05:48:27;96414.06;;;4.91
61595;BMP280;47397;48.194;11.632;2024-03-22T05:49:29;96419.97;;;4.96